Nearby METAR Reports

 

KMLE - Omaha/Millard, Nebraska, USA
Distance from station: NE 1mi, 2km
Updated: Sun, 18-Aug-2019 7:35pm CDT
Overcast
Overcast
 Wind from calm
Wind: Calm
Temperature: 77°F , 25°C
Dew Point: 68°F , 20°C
Humidity: 74%
Barometer: 29.90 inHg , 1012.5 hPa
Clouds: Overcast
Visibility: 10 miles , 16 km
Cloud details: Mostly cloudy 2400 ft
Overcast 3600 ft
2019/08/19 00:35 KMLE 190035Z AUTO 00000KT 10SM BKN024 OVC036 25/20 A2990 RMK AO2 T02460201
KOFF - Offutt Afb/Belle, Nebraska, USA
Distance from station: ESE 12mi, 20km
Updated: Sun, 18-Aug-2019 6:56pm CDT
Overcast
Overcast
 Wind from NNE
Wind: NNE 6 mph , 9 km/h
Temperature: 75°F , 24°C
Dew Point: 66°F , 19°C
Humidity: 74%
Barometer: 29.92 inHg , 1013.2 hPa
Clouds: Overcast
Visibility: 10 miles , 16 km
Cloud details: Overcast 3300 ft
2019/08/18 23:56 KOFF 182356Z 02005KT 10SM OVC033 24/19 A2992 RMK AO2A SLP117 RVRNO $
 
KOMA - Omaha/Eppley, Nebraska, USA
Distance from station: NE 15mi, 24km
Updated: Sun, 18-Aug-2019 6:52pm CDT
Overcast
Overcast
 Wind from NNE
Wind: NNE 5 mph , 7 km/h
Temperature: 75°F , 24°C
Dew Point: 68°F , 20°C
Humidity: 78%
Barometer: 29.88 inHg , 1011.9 hPa
Clouds: Overcast
Visibility: 10 miles , 16 km
Cloud details: Overcast 3400 ft
2019/08/18 23:52 KOMA 182352Z 03004KT 10SM OVC034 24/20 A2988 RMK AO2 SLP112 T02390200 10250 20239 51006
KBTA - Blair Muni, Nebraska, USA
Distance from station: N 16mi, 25km
Updated: Sun, 18-Aug-2019 7:35pm CDT
Overcast
Overcast
 Wind from NNE
Wind: NNE 6 mph , 9 km/h
Temperature: 73°F , 23°C
Dew Point: 66°F , 19°C
Humidity: 78%
Barometer: 29.91 inHg , 1012.9 hPa
Clouds: Overcast
Visibility: 10 miles , 16 km
Cloud details: Overcast 3500 ft
2019/08/19 00:35 KBTA 190035Z AUTO 03005KT 10SM OVC035 23/19 A2991 RMK AO2 T02310191
 
KCBF - Council Bluffs, Iowa, USA
Distance from station: ENE 20mi, 32km
Updated: Sun, 18-Aug-2019 7:35pm CDT
Overcast
Overcast
 Wind from calm
Wind: Calm
Temperature: 73°F , 23°C
Dew Point: 72°F , 22°C
Humidity: 94%
Barometer: 29.88 inHg , 1011.9 hPa
Clouds: Overcast
Visibility: 10 miles , 16 km
Cloud details: Few Clouds 2400 ft
Overcast 3200 ft
2019/08/19 00:35 KCBF 190035Z AUTO 00000KT 10SM FEW024 OVC032 23/22 A2988 RMK AO2
KPMV - Plattsmouth Muni, Nebraska, USA
Distance from station: SE 20mi, 32km
Updated: Sun, 18-Aug-2019 7:35pm CDT
Overcast
Overcast
 Wind from calm
Wind: Calm
Temperature: 73°F , 23°C
Dew Point: 70°F , 21°C
Humidity: 89%
Barometer: 29.91 inHg , 1012.9 hPa
Clouds: Overcast
Visibility: 10 miles , 16 km
Cloud details: Overcast 2600 ft
2019/08/19 00:35 KPMV 190035Z AUTO 00000KT 10SM OVC026 23/21 A2991 RMK AO2 T02280205
 
KAHQ - Wahoo, Nebraska, USA
Distance from station: W 25mi, 40km
Updated: Sun, 18-Aug-2019 7:35pm CDT
Overcast
Overcast
 Wind from NE
Wind: NE 3 mph , 6 km/h
Temperature: 73°F , 23°C
Dew Point: 68°F , 20°C
Humidity: 83%
Barometer: 29.91 inHg , 1012.9 hPa
Clouds: Overcast
Visibility: 10 miles , 16 km
Cloud details: Overcast 3900 ft
2019/08/19 00:35 KAHQ 190035Z AUTO 04003KT 10SM OVC039 23/20 A2991 RMK AO2 T02300201
KFET - Fremont Muni Arp, Nebraska, USA
Distance from station: NW 27mi, 43km
Updated: Sun, 18-Aug-2019 7:35pm CDT
Overcast
Overcast
 Wind from calm
Wind: Calm
Temperature: 75°F , 24°C
Dew Point: 66°F , 19°C
Humidity: 74%
Barometer: 29.92 inHg , 1013.2 hPa
Clouds: Overcast
Visibility: 10 miles , 16 km
Cloud details: Partly cloudy 2700 ft
Overcast 3600 ft
2019/08/19 00:35 KFET 190035Z AUTO 00000KT 10SM SCT027 OVC036 24/19 A2992 RMK AO2 T02430188
 
KTQE - Tekamah, Nebraska, USA
Distance from station: N 40mi, 64km
Updated: Sun, 18-Aug-2019 6:54pm CDT
Overcast
Overcast
 Wind from NNE
Wind: NNE 8 mph , 13 km/h
Temperature: 75°F , 24°C
Dew Point: 64°F , 18°C
Humidity: 69%
Barometer: 29.88 inHg , 1011.9 hPa
Clouds: Overcast
Visibility: 10 miles , 16 km
Cloud details: Overcast 4100 ft
2019/08/18 23:54 KTQE 182354Z AUTO 02007KT 10SM OVC041 24/18 A2988 RMK AO2 SLP107 T02440183 10250 20228 50001
KLNK - Lincoln, Nebraska, USA
Distance from station: SW 41mi, 65km
Updated: Sun, 18-Aug-2019 6:54pm CDT
Overcast
Overcast
 Wind from calm
Wind: Calm
Temperature: 75°F , 24°C
Dew Point: 64°F , 18°C
Humidity: 69%
Barometer: 29.91 inHg , 1012.9 hPa
Clouds: Overcast
Visibility: 10 miles , 16 km
Cloud details: Overcast 3600 ft
2019/08/18 23:54 KLNK 182354Z 00000KT 10SM OVC036 24/18 A2991 RMK AO2 SLP118 T02390183 10244 20211 51004
 
KAFK - Nebraska City, Nebraska, USA
Distance from station: SSE 43mi, 70km
Updated: Sun, 18-Aug-2019 7:35pm CDT
Partly cloudy
Partly cloudy
 Wind from N
Wind: N 7 mph , 11 km/h
Temperature: 72°F , 22°C
Dew Point: 70°F , 21°C
Humidity: 94%
Barometer: 29.91 inHg , 1012.9 hPa
Clouds: Partly cloudy
Visibility: 7 miles , 11 km
Cloud details: Partly cloudy 3600 ft
2019/08/19 00:35 KAFK 190035Z AUTO 35006KT 7SM SCT036 22/21 A2991 RMK AO2 T02150206
KRDK - Red Oak, Iowa, USA
Distance from station: ESE 47mi, 75km
Updated: Sun, 18-Aug-2019 7:35pm CDT
Overcast
Overcast
 Wind from N
Wind: N 6 mph , 9 km/h
Temperature: 75°F , 24°C
Dew Point: 70°F , 21°C
Humidity: 83%
Barometer: 29.89 inHg , 1012.2 hPa
Clouds: Overcast
Visibility: 10 miles , 16 km
Cloud details: Mostly cloudy 2600 ft
Mostly cloudy 3100 ft
Overcast 4700 ft
2019/08/19 00:35 KRDK 190035Z AUTO 35005KT 10SM BKN026 BKN031 OVC047 24/21 A2989 RMK AO2
 
KSDA - Shenandoah Muni, Iowa, USA
Distance from station: SE 48mi, 77km
Updated: Sun, 18-Aug-2019 7:35pm CDT
Overcast
Overcast
 Wind from NW
Wind: NW 6 mph , 9 km/h
Temperature: 75°F , 24°C
Dew Point: 70°F , 21°C
Humidity: 83%
Barometer: 29.89 inHg , 1012.2 hPa
Clouds: Overcast
Visibility: 10 miles , 16 km
Cloud details: Overcast 2500 ft
2019/08/19 00:35 KSDA 190035Z AUTO 32005KT 10SM OVC025 24/21 A2989 RMK AO2
KHNR - Harlan Muni, Iowa, USA
Distance from station: NE 49mi, 80km
Updated: Sun, 18-Aug-2019 7:35pm CDT
Overcast
Overcast
 Wind from NNE
Wind: NNE 3 mph , 6 km/h
Temperature: 73°F , 23°C
Dew Point: 70°F , 21°C
Humidity: 89%
Barometer: 29.89 inHg , 1012.2 hPa
Clouds: Overcast
Visibility: 10 miles , 16 km
Cloud details: Mostly cloudy 2600 ft
Overcast 3000 ft
2019/08/19 00:35 KHNR 190035Z AUTO 03003KT 10SM BKN026 OVC030 23/21 A2989 RMK AO2